Trenton, Maine
Current Conditions -  °F | °C
As of 5:55 PM on Saturday 25 Oct 2014 (Local Time) from KBHB Reporting Station
Clear Clear  
Wind Chill: 50°   Ceiling: Unl
Heat Index: 50°   Visibility: 10mi
Dew Point: 46°   Wind: 7mph
Humidity: 87%   Direction: 210°SSW
Pressure: 29.56"   Gusts: NA
Location:  44.6651°N, 68.3944°W
Report Text: KBHB 252155Z AUTO 21006KT 10SM CLR 10/08 A2956 RMK AO1
Loading
Personal Weather Stations






























Interactive Weather Map
Tropical Storm Tracking
New forecast layout! Learn more

10-Day Weather Forecast

Advertisements
Track Severe Weather on mobile